Hutchinson, KS (67501)

12:26 PM CDT on August 26, 2016 (GMT -0500)
NW Hutchinson | | Change Station

Elev 1542 ft 38.08 °N, 97.94 °W | Updated 3 minutes ago

Mostly Cloudy
Mostly Cloudy
73.4 °F
Feels Like 74 °F
N
0.6
Wind Variable Wind from East
Gusts 1.2 mph

Today
High -- | Low -- °F
--% Chance of Precip.
Yesterday
High -- | Low -- °F
Precip. -- in
Pressure 30.11 in
Visibility 10.0 miles
Clouds Mostly Cloudy 1600 ft
Mostly Cloudy 6500 ft
Heat Index 74 °F
Dew Point 67 °F
Humidity 79%
Rainfall 0.48 in
Snow Depth Not available.
6:56 AM 8:09 PM
Waning Crescent, 33% visible
SPECI KHUT 261701Z 10004KT 10SM BKN016 BKN065 23/19 A3011 RMK AO2 T02330189
Pressure 30.11 in
Visibility 10.0 miles
Clouds Mostly Cloudy 1600 ft
Mostly Cloudy 6500 ft
Heat Index 74 °F
Dew Point 67 °F
Humidity 79%
Rainfall 0.48 in
Snow Depth Not available.
6:56 AM 8:09 PM
Waning Crescent, 33% visible
SPECI KHUT 261701Z 10004KT 10SM BKN016 BKN065 23/19 A3011 RMK AO2 T02330189

10-Day Weather Forecast

Almanac

Astronomy

Aug. 26, 2016 Rise Set
Actual Time
Civil Twilight
Nautical Twilight
Astronomical Twilight
Moon
Length of Visible Light
Length of Day
Tomorrow will be .
, % of the Moon is Illuminated

Today's Extremes

State Highs State Lows

Community

WunderPhotos

Upload Photos

1,935,145 photos uploaded!

WunderBlog® & News

Nearby

Air Quality

  Air Quality AQ Index Pollutant
Not available.

Snow Depth

Station Depth Elevation

Earthquake Activity

City Distance Mag. Time & Date
Minimum magnitude displayed is 2.5.

Coastal Water Temperatures

Place Temperature

Stations

Nearby Weather Stations

Station Location Temp. Windchill Dew Point Humidity Wind Precip. Elev Updated Type
                   

Watches & Warnings

There are currently no watches in effect.